Time;durP1;ratioP1;P1;durP2;ratioP2;P2;SDS_P1;SDS_P2;PMS_P1;PMS_P2;Temp;Humidity;BMP_temperature;BMP_pressure;BME280_temperature;BME280_humidity;BME280_pressure;Samples;Min_cycle;Max_cycle;Signal;HPM_P1;HPM_P2
2022/08/29 00:01:00;;;;;;;5.55;2.00;;;17.90;99.90;;;;;;5040547;28;20044;-77
2022/08/29 00:03:26;;;;;;;4.03;1.80;;;17.90;99.90;;;;;;5007364;28;20479;-77
2022/08/29 00:05:52;;;;;;;4.25;1.73;;;17.90;99.90;;;;;;5005452;28;20072;-77
2022/08/29 00:08:18;;;;;;;3.92;1.77;;;17.90;99.90;;;;;;5004323;28;20077;-78
2022/08/29 00:10:44;;;;;;;3.50;1.83;;;17.90;99.90;;;;;;5008412;28;20037;-77
2022/08/29 00:13:14;;;;;;;3.90;1.88;;;17.90;99.90;;;;;;5028254;28;20057;-77
2022/08/29 00:15:41;;;;;;;2.72;1.45;;;17.90;99.90;;;;;;5031829;28;20041;-77
2022/08/29 00:18:07;;;;;;;4.07;2.10;;;17.90;99.90;;;;;;4987727;28;20467;-77
2022/08/29 00:20:34;;;;;;;4.85;1.90;;;17.90;99.90;;;;;;5007311;28;20124;-77
2022/08/29 00:23:04;;;;;;;3.45;1.70;;;17.90;99.90;;;;;;5038209;28;20079;-77
2022/08/29 00:25:30;;;;;;;4.70;2.13;;;17.90;99.90;;;;;;5024051;28;20132;-77
2022/08/29 00:27:56;;;;;;;3.05;1.40;;;17.90;99.90;;;;;;5016546;28;20336;-78
2022/08/29 00:30:23;;;;;;;3.20;1.50;;;17.90;99.90;;;;;;5017238;28;20044;-78
2022/08/29 00:32:49;;;;;;;6.30;1.85;;;17.90;99.90;;;;;;5001899;28;20091;-78
2022/08/29 00:35:22;;;;;;;5.30;1.90;;;17.90;99.90;;;;;;5003093;28;20132;-78
2022/08/29 00:37:50;;;;;;;6.05;1.90;;;17.90;99.90;;;;;;5016341;28;20648;-78
2022/08/29 00:40:19;;;;;;;7.10;2.15;;;18.00;99.90;;;;;;5005001;28;20047;-78
2022/08/29 00:42:45;;;;;;;4.47;2.40;;;18.00;99.90;;;;;;5026653;28;21403;-78
2022/08/29 00:45:13;;;;;;;4.55;2.03;;;18.00;99.90;;;;;;5021337;28;20041;-79
2022/08/29 00:47:43;;;;;;;6.45;2.33;;;17.90;99.90;;;;;;5018223;28;20461;-79
2022/08/29 00:50:19;;;;;;;6.43;2.05;;;17.90;99.90;;;;;;5023435;28;21936;-79
2022/08/29 00:52:47;;;;;;;4.60;1.92;;;17.90;99.90;;;;;;5018961;28;20049;-78
2022/08/29 00:55:18;;;;;;;5.13;2.58;;;17.90;99.90;;;;;;5002181;28;20045;-79
2022/08/29 00:57:49;;;;;;;4.90;2.17;;;17.90;99.90;;;;;;5021870;28;20049;-79
2022/08/29 01:00:16;;;;;;;4.65;2.20;;;17.90;99.90;;;;;;5022034;28;20053;-79
2022/08/29 01:02:42;;;;;;;5.60;2.08;;;17.90;99.90;;;;;;5020804;28;21766;-79
2022/08/29 01:05:10;;;;;;;5.10;2.15;;;17.90;99.90;;;;;;5006195;28;20076;-79
2022/08/29 01:07:37;;;;;;;6.35;2.47;;;17.90;99.90;;;;;;5017277;28;20079;-79
2022/08/29 01:10:05;;;;;;;4.88;2.22;;;17.90;99.90;;;;;;5002029;28;20629;-80
2022/08/29 01:12:32;;;;;;;4.65;1.95;;;17.90;99.90;;;;;;5038870;28;20045;-79
2022/08/29 01:15:02;;;;;;;3.53;1.88;;;17.90;99.90;;;;;;5005485;28;20053;-76
2022/08/29 01:17:46;;;;;;;4.72;1.90;;;17.80;99.90;;;;;;5000448;28;20055;-77
2022/08/29 01:20:18;;;;;;;4.25;2.10;;;17.80;99.90;;;;;;5022618;28;20410;-77
2022/08/29 01:23:12;;;;;;;5.20;1.90;;;18.10;99.90;;;;;;5021867;28;20083;-77
2022/08/29 01:25:44;;;;;;;5.38;2.00;;;17.80;99.90;;;;;;5022327;28;20127;-76
2022/08/29 01:28:24;;;;;;;3.45;2.20;;;17.80;99.90;;;;;;5023724;28;20057;-77
2022/08/29 01:31:05;;;;;;;3.53;1.60;;;17.80;99.90;;;;;;5000966;28;20037;-77
2022/08/29 01:33:45;;;;;;;7.00;2.38;;;17.80;99.90;;;;;;5000177;28;20052;-77
2022/08/29 01:36:14;;;;;;;4.15;2.33;;;17.80;99.90;;;;;;5004967;28;20553;-77
2022/08/29 01:38:40;;;;;;;3.63;2.08;;;17.80;99.90;;;;;;5003557;28;20049;-77
2022/08/29 01:41:08;;;;;;;3.10;1.80;;;17.80;99.90;;;;;;5003838;28;20152;-78
2022/08/29 01:43:40;;;;;;;3.80;1.80;;;17.80;99.90;;;;;;5004835;28;20056;-77
2022/08/29 01:46:06;;;;;;;4.65;2.08;;;17.80;99.90;;;;;;5003067;28;20040;-76
2022/08/29 01:48:31;;;;;;;4.20;2.33;;;17.80;99.90;;;;;;4987346;28;20049;-79
2022/08/29 01:50:57;;;;;;;6.03;1.90;;;17.90;99.90;;;;;;5023380;28;20572;-79
2022/08/29 01:53:23;;;;;;;4.47;1.83;;;17.80;99.90;;;;;;5004369;28;20048;-79
2022/08/29 01:55:48;;;;;;;3.50;1.77;;;17.90;99.90;;;;;;5017838;28;20110;-77
2022/08/29 01:58:15;;;;;;;4.50;1.80;;;17.90;99.90;;;;;;5004742;28;20053;-77
2022/08/29 02:00:41;;;;;;;4.03;1.73;;;17.90;99.90;;;;;;5001175;28;20076;-77
2022/08/29 02:03:06;;;;;;;4.38;1.75;;;17.90;99.90;;;;;;5008892;28;20095;-77
2022/08/29 02:05:32;;;;;;;3.67;2.05;;;17.90;99.90;;;;;;5005587;28;20128;-77
2022/08/29 02:07:59;;;;;;;4.40;1.90;;;17.90;99.90;;;;;;5004488;28;20125;-77
2022/08/29 02:10:25;;;;;;;4.32;1.90;;;17.90;99.90;;;;;;5023454;28;20060;-78
2022/08/29 02:12:52;;;;;;;4.57;1.70;;;17.90;99.90;;;;;;5003981;28;20048;-77
2022/08/29 02:15:18;;;;;;;4.65;1.40;;;17.90;99.90;;;;;;4989639;28;20040;-77
2022/08/29 02:17:44;;;;;;;3.97;1.83;;;17.90;99.90;;;;;;5020444;28;20086;-77
2022/08/29 02:20:10;;;;;;;5.03;1.73;;;17.90;99.90;;;;;;4998400;28;20075;-77
2022/08/29 02:22:37;;;;;;;6.95;2.42;;;17.90;99.90;;;;;;4998432;28;20052;-78
2022/08/29 02:25:40;;;;;;;5.25;2.17;;;17.90;99.90;;;;;;5033129;28;20510;-77
2022/08/29 02:27:52;;;;;;;4.78;1.80;;;17.80;99.90;;;;;;5015804;28;20056;-77
2022/08/29 02:30:19;;;;;;;7.45;2.03;;;17.80;99.90;;;;;;5020316;28;20466;-77
2022/08/29 02:32:46;;;;;;;5.70;2.20;;;17.90;99.90;;;;;;5016123;28;20102;-78
2022/08/29 02:35:12;;;;;;;4.22;2.00;;;17.80;99.90;;;;;;5037524;28;20142;-77
2022/08/29 02:37:37;;;;;;;4.18;2.00;;;17.80;99.90;;;;;;5036783;28;20040;-77
2022/08/29 02:40:04;;;;;;;4.82;2.20;;;17.80;99.90;;;;;;5021089;28;20045;-78
2022/08/29 02:42:30;;;;;;;5.60;1.90;;;17.80;99.90;;;;;;5016291;28;20056;-78
2022/08/29 02:44:55;;;;;;;5.10;1.90;;;17.80;99.90;;;;;;5020361;28;20049;-77
2022/08/29 02:47:21;;;;;;;3.80;2.10;;;17.80;99.90;;;;;;5020591;28;20582;-77
2022/08/29 02:49:47;;;;;;;6.68;1.95;;;17.80;99.90;;;;;;5000945;28;20086;-76
2022/08/29 02:52:13;;;;;;;4.90;2.13;;;17.80;99.90;;;;;;5003405;28;20040;-77
2022/08/29 02:54:39;;;;;;;6.20;2.38;;;17.80;99.90;;;;;;5024658;28;20128;-77
2022/08/29 02:57:05;;;;;;;4.10;1.95;;;17.80;99.90;;;;;;5019060;28;20106;-77
2022/08/29 02:59:31;;;;;;;4.13;2.30;;;17.80;99.90;;;;;;5027154;28;20812;-77
2022/08/29 03:01:57;;;;;;;5.82;2.25;;;17.80;99.90;;;;;;5016283;28;20489;-77
2022/08/29 03:04:23;;;;;;;6.10;2.00;;;17.80;99.90;;;;;;5021343;28;20048;-77
2022/08/29 03:06:49;;;;;;;6.05;1.75;;;17.90;99.90;;;;;;4998386;28;20056;-78
2022/08/29 03:09:14;;;;;;;6.57;2.08;;;17.80;99.90;;;;;;5019949;28;20070;-77
2022/08/29 03:11:40;;;;;;;4.00;1.98;;;17.80;99.90;;;;;;5022066;28;20056;-77
2022/08/29 03:14:06;;;;;;;5.90;2.42;;;17.80;99.90;;;;;;5007187;28;20052;-77
2022/08/29 03:16:32;;;;;;;5.43;2.03;;;17.80;99.90;;;;;;5019622;28;20056;-78
2022/08/29 03:18:58;;;;;;;7.35;2.15;;;17.80;99.90;;;;;;5004518;28;20080;-77
2022/08/29 03:21:25;;;;;;;6.35;2.25;;;17.80;99.90;;;;;;5019380;28;20118;-77
2022/08/29 03:23:54;;;;;;;3.60;2.15;;;17.80;99.90;;;;;;5004401;28;20049;-77
2022/08/29 03:26:19;;;;;;;6.03;2.08;;;17.80;99.90;;;;;;4995850;28;20353;-78
2022/08/29 03:28:46;;;;;;;6.20;2.10;;;17.80;99.90;;;;;;4999377;28;20469;-78
2022/08/29 03:31:12;;;;;;;4.80;2.42;;;17.80;99.90;;;;;;5045668;28;20084;-78
2022/08/29 03:33:38;;;;;;;4.85;2.13;;;17.80;99.90;;;;;;5011811;28;20077;-77
2022/08/29 03:36:04;;;;;;;4.00;2.10;;;17.80;99.90;;;;;;5016262;28;20076;-78
2022/08/29 03:38:30;;;;;;;7.28;2.42;;;17.80;99.90;;;;;;5015814;28;20542;-78
2022/08/29 03:40:56;;;;;;;4.45;2.28;;;17.80;99.90;;;;;;4978976;28;20041;-79
2022/08/29 03:43:22;;;;;;;5.47;2.03;;;17.80;99.90;;;;;;4978702;28;20124;-78
2022/08/29 03:45:48;;;;;;;6.32;2.40;;;17.80;99.90;;;;;;5017741;28;20080;-78
2022/08/29 03:48:14;;;;;;;5.15;1.85;;;17.80;99.90;;;;;;4991813;28;20053;-78
2022/08/29 03:50:41;;;;;;;4.53;2.20;;;17.80;99.90;;;;;;5018469;28;20049;-78
2022/08/29 03:53:07;;;;;;;4.85;1.98;;;17.80;99.90;;;;;;5000380;28;20053;-79
2022/08/29 03:55:33;;;;;;;4.15;1.60;;;17.80;99.90;;;;;;5014324;28;20034;-78
2022/08/29 03:57:59;;;;;;;4.45;1.90;;;17.80;99.90;;;;;;5020143;28;20046;-78
2022/08/29 04:00:24;;;;;;;6.45;2.03;;;17.80;99.90;;;;;;5012772;28;20041;-78
2022/08/29 04:02:53;;;;;;;6.63;1.75;;;17.80;99.90;;;;;;5002593;28;20119;-79
2022/08/29 04:05:20;;;;;;;4.78;2.03;;;17.80;99.90;;;;;;5003650;28;20495;-78
2022/08/29 04:07:50;;;;;;;4.15;1.70;;;17.80;99.90;;;;;;5001308;28;20671;-79
2022/08/29 04:10:29;;;;;;;4.57;1.60;;;17.80;99.90;;;;;;4998378;28;20053;-79
2022/08/29 04:12:55;;;;;;;3.15;1.48;;;17.80;99.90;;;;;;5012364;28;20041;-79
2022/08/29 04:15:23;;;;;;;2.97;1.50;;;17.80;99.90;;;;;;5016827;28;20048;-78
2022/08/29 04:17:53;;;;;;;4.80;1.60;;;17.80;99.90;;;;;;5018476;28;20057;-78
2022/08/29 04:20:19;;;;;;;5.95;1.35;;;17.80;99.90;;;;;;5014526;28;20162;-79
2022/08/29 04:22:47;;;;;;;2.75;1.25;;;17.80;99.90;;;;;;5018822;28;20049;-79
2022/08/29 04:25:13;;;;;;;3.17;1.20;;;17.80;99.90;;;;;;5020832;28;20446;-77
2022/08/29 04:27:40;;;;;;;2.97;1.52;;;17.80;99.90;;;;;;5001250;28;20053;-78
2022/08/29 04:30:10;;;;;;;5.25;1.95;;;17.80;99.90;;;;;;4999365;28;20213;-77
2022/08/29 04:32:35;;;;;;;3.88;1.27;;;17.80;99.90;;;;;;5001209;28;20053;-78
2022/08/29 04:35:01;;;;;;;3.15;1.50;;;17.80;99.90;;;;;;5019824;28;20044;-78
2022/08/29 04:37:28;;;;;;;1.83;1.00;;;17.70;99.90;;;;;;4975028;28;20503;-80
2022/08/29 04:39:53;;;;;;;3.40;1.33;;;17.80;99.90;;;;;;5018052;28;20088;-78
2022/08/29 04:42:19;;;;;;;2.80;1.38;;;17.80;99.90;;;;;;5018057;28;20049;-79
2022/08/29 04:44:46;;;;;;;2.33;1.17;;;17.70;99.90;;;;;;5019088;28;20053;-79
2022/08/29 04:47:13;;;;;;;3.72;1.20;;;17.80;99.90;;;;;;4982662;28;20120;-78
2022/08/29 04:49:38;;;;;;;6.00;1.33;;;17.70;99.90;;;;;;5015641;28;20053;-79
2022/08/29 04:52:05;;;;;;;5.03;1.23;;;17.80;99.90;;;;;;5016808;28;20618;-78
2022/08/29 04:54:30;;;;;;;3.45;1.35;;;17.70;99.90;;;;;;4981685;28;20169;-78
2022/08/29 04:57:02;;;;;;;1.77;1.00;;;17.80;99.90;;;;;;5001079;28;20080;-78
2022/08/29 04:59:28;;;;;;;3.22;1.10;;;17.70;99.90;;;;;;5012280;28;20056;-78
2022/08/29 05:01:55;;;;;;;3.25;1.00;;;17.80;99.90;;;;;;5003388;28;20037;-77
2022/08/29 05:04:21;;;;;;;4.63;1.25;;;17.80;99.90;;;;;;5002772;28;20517;-78
2022/08/29 05:06:46;;;;;;;3.95;1.40;;;17.80;99.90;;;;;;5018466;28;20046;-78
2022/08/29 05:09:12;;;;;;;3.85;1.23;;;17.80;99.90;;;;;;5004458;28;20053;-78
2022/08/29 05:11:39;;;;;;;4.10;1.35;;;17.70;99.90;;;;;;5016229;28;20487;-77
2022/08/29 05:14:05;;;;;;;4.32;1.60;;;17.80;99.90;;;;;;5003054;28;20514;-77
2022/08/29 05:16:35;;;;;;;3.90;1.33;;;17.80;99.90;;;;;;4997731;28;20156;-78
2022/08/29 05:19:03;;;;;;;3.25;1.40;;;17.80;99.90;;;;;;5018450;28;20874;-77
2022/08/29 05:21:32;;;;;;;3.10;1.25;;;17.80;99.90;;;;;;4997336;28;20056;-77
2022/08/29 05:23:58;;;;;;;3.78;1.42;;;17.80;99.90;;;;;;4996528;28;20053;-77
2022/08/29 05:26:30;;;;;;;4.40;1.17;;;17.80;99.90;;;;;;5012062;28;20499;-77
2022/08/29 05:28:56;;;;;;;5.25;1.40;;;17.80;99.90;;;;;;5034648;28;20046;-77
2022/08/29 05:31:22;;;;;;;3.60;1.25;;;17.80;99.90;;;;;;5008899;28;20053;-77
2022/08/29 05:33:48;;;;;;;5.25;1.38;;;17.80;99.90;;;;;;5014070;28;20461;-77
2022/08/29 05:36:13;;;;;;;3.60;1.48;;;17.90;99.90;;;;;;5004081;28;20053;-77
2022/08/29 05:38:39;;;;;;;5.63;1.60;;;17.80;99.90;;;;;;5003060;28;20049;-78
2022/08/29 05:41:06;;;;;;;3.38;1.55;;;17.90;99.90;;;;;;5003872;28;20049;-78
2022/08/29 05:43:32;;;;;;;4.15;1.60;;;17.90;99.90;;;;;;4984424;28;20057;-79
2022/08/29 05:46:06;;;;;;;3.45;1.27;;;17.90;99.90;;;;;;5017135;28;20184;-77
2022/08/29 05:48:33;;;;;;;6.47;1.40;;;17.90;99.90;;;;;;5003276;28;20060;-78
2022/08/29 05:51:00;;;;;;;3.97;1.60;;;17.90;99.90;;;;;;5015062;28;20136;-77
2022/08/29 05:53:26;;;;;;;5.20;1.45;;;17.90;99.90;;;;;;5034582;28;20049;-78
2022/08/29 05:55:53;;;;;;;4.30;1.45;;;17.90;99.90;;;;;;5012884;28;20041;-78
2022/08/29 05:58:19;;;;;;;4.38;1.48;;;17.90;99.90;;;;;;5005124;28;20132;-78
2022/08/29 06:00:46;;;;;;;5.50;1.67;;;17.90;99.90;;;;;;5016051;28;20041;-79
2022/08/29 06:03:13;;;;;;;3.10;1.23;;;17.90;99.90;;;;;;5021387;28;20041;-78
2022/08/29 06:05:40;;;;;;;4.18;1.60;;;17.90;99.90;;;;;;5018927;28;20111;-78
2022/08/29 06:08:06;;;;;;;4.72;1.50;;;17.90;99.90;;;;;;5020332;28;20045;-78
2022/08/29 06:10:33;;;;;;;4.57;1.45;;;17.90;99.90;;;;;;5001126;28;20099;-80
2022/08/29 06:12:59;;;;;;;3.50;1.33;;;17.90;99.90;;;;;;5002820;28;20050;-80
2022/08/29 06:15:27;;;;;;;5.80;1.55;;;17.90;99.90;;;;;;5022477;28;20049;-79
2022/08/29 06:17:53;;;;;;;8.02;1.30;;;18.00;99.90;;;;;;5001696;28;20180;-79
2022/08/29 06:20:19;;;;;;;7.32;1.63;;;18.00;99.90;;;;;;5022639;28;20107;-80
2022/08/29 06:22:45;;;;;;;6.15;1.73;;;18.00;99.90;;;;;;5016803;28;20053;-80
2022/08/29 06:25:11;;;;;;;4.40;1.40;;;18.00;99.90;;;;;;5005926;28;20073;-80
2022/08/29 06:27:37;;;;;;;4.80;1.52;;;18.30;99.90;;;;;;5007167;28;20088;-79
2022/08/29 06:30:04;;;;;;;3.95;1.40;;;18.00;99.90;;;;;;5002581;28;20057;-80
2022/08/29 06:32:29;;;;;;;6.07;1.38;;;18.10;99.90;;;;;;5003077;28;20160;-80
2022/08/29 06:34:55;;;;;;;5.15;1.60;;;18.10;99.90;;;;;;5023680;28;20546;-77
2022/08/29 06:37:21;;;;;;;4.63;1.52;;;18.10;99.90;;;;;;5000044;28;20479;-78
2022/08/29 06:39:46;;;;;;;7.15;1.90;;;18.20;99.90;;;;;;4989847;28;20061;-79
2022/08/29 06:42:12;;;;;;;4.03;1.42;;;18.20;99.90;;;;;;4975289;28;20133;-78
2022/08/29 06:44:38;;;;;;;4.18;1.35;;;18.30;99.90;;;;;;4990421;28;20690;-78
2022/08/29 06:47:04;;;;;;;5.43;1.25;;;18.30;99.90;;;;;;4990284;28;20116;-79
2022/08/29 06:49:31;;;;;;;3.72;1.45;;;18.40;99.90;;;;;;5017392;28;20109;-78
2022/08/29 06:51:57;;;;;;;1.90;1.00;;;18.40;99.90;;;;;;5001332;28;20041;-79
2022/08/29 06:54:24;;;;;;;6.25;1.17;;;18.50;99.90;;;;;;5002608;28;20038;-79
2022/08/29 06:56:50;;;;;;;3.58;1.10;;;18.50;99.90;;;;;;5027003;28;20037;-78
2022/08/29 06:59:17;;;;;;;4.10;1.27;;;18.50;99.90;;;;;;5000022;28;20037;-78
2022/08/29 07:01:44;;;;;;;3.00;1.30;;;18.60;99.90;;;;;;5038191;28;20073;-78
2022/08/29 07:04:10;;;;;;;3.42;1.27;;;18.60;99.90;;;;;;5020627;28;20107;-79
2022/08/29 07:06:37;;;;;;;3.78;1.20;;;18.70;99.90;;;;;;4996091;28;20044;-78
2022/08/29 07:09:03;;;;;;;4.05;1.30;;;18.70;99.90;;;;;;5006145;28;20045;-78
2022/08/29 07:11:30;;;;;;;4.53;1.20;;;18.80;99.90;;;;;;5005035;28;20398;-79
2022/08/29 07:13:59;;;;;;;4.85;1.33;;;18.80;99.90;;;;;;4986794;28;20565;-78
2022/08/29 07:16:25;;;;;;;3.22;1.20;;;18.90;99.90;;;;;;5002521;28;20471;-78
2022/08/29 07:18:51;;;;;;;2.65;0.98;;;19.00;99.90;;;;;;5001948;28;20042;-78
2022/08/29 07:21:19;;;;;;;2.30;0.93;;;19.10;99.90;;;;;;5003622;28;20056;-78
2022/08/29 07:23:45;;;;;;;4.30;1.52;;;19.20;99.90;;;;;;5005398;28;20050;-78
2022/08/29 07:26:19;;;;;;;2.78;1.10;;;19.30;99.90;;;;;;4991460;28;20114;-78
2022/08/29 07:28:50;;;;;;;4.03;1.17;;;19.50;99.90;;;;;;5024112;28;20079;-81
2022/08/29 07:31:16;;;;;;;3.75;1.20;;;19.60;99.90;;;;;;5002921;28;20118;-78
2022/08/29 07:33:42;;;;;;;5.00;1.40;;;19.60;99.90;;;;;;4992044;28;20049;-78
2022/08/29 07:36:08;;;;;;;6.25;1.33;;;19.70;99.90;;;;;;5021809;28;20380;-78
2022/08/29 07:38:36;;;;;;;4.05;1.33;;;19.80;99.90;;;;;;4990643;28;20033;-79
2022/08/29 07:41:13;;;;;;;5.72;1.52;;;19.80;99.90;;;;;;5023817;28;20045;-78
2022/08/29 07:43:39;;;;;;;6.40;1.50;;;19.90;99.90;;;;;;5024777;28;20140;-78
2022/08/29 07:46:11;;;;;;;3.25;1.35;;;20.00;99.90;;;;;;5022459;28;20154;-78
2022/08/29 07:48:38;;;;;;;2.70;1.48;;;20.10;99.90;;;;;;5005809;28;20041;-79
2022/08/29 07:51:09;;;;;;;4.22;1.40;;;20.20;99.90;;;;;;5013545;28;20490;-79
2022/08/29 07:53:35;;;;;;;5.78;1.52;;;20.20;99.90;;;;;;5006332;28;20049;-80
2022/08/29 07:56:11;;;;;;;2.83;1.02;;;20.30;99.90;;;;;;5007326;28;20680;-80
2022/08/29 07:58:37;;;;;;;3.53;1.23;;;20.30;99.90;;;;;;5019383;28;20047;-80
2022/08/29 08:01:03;;;;;;;4.68;1.17;;;20.40;99.90;;;;;;5008631;28;20068;-80
2022/08/29 08:03:33;;;;;;;3.30;1.00;;;20.50;99.90;;;;;;5007488;28;20155;-81
2022/08/29 08:05:59;;;;;;;3.67;1.15;;;20.50;99.90;;;;;;5006137;28;20041;-79
2022/08/29 08:08:25;;;;;;;2.40;1.02;;;20.60;99.90;;;;;;5005748;28;20573;-79
2022/08/29 08:10:51;;;;;;;4.00;1.25;;;20.70;99.90;;;;;;5008631;28;20136;-78
2022/08/29 08:13:17;;;;;;;3.25;1.05;;;20.80;99.90;;;;;;5007229;28;20048;-78
2022/08/29 08:15:43;;;;;;;4.03;1.30;;;20.90;99.90;;;;;;5004638;28;20181;-79
2022/08/29 08:18:09;;;;;;;3.17;1.27;;;21.10;99.90;;;;;;5018884;28;20042;-78
2022/08/29 08:20:35;;;;;;;5.07;1.10;;;21.30;99.90;;;;;;5019306;28;20072;-80
2022/08/29 08:23:01;;;;;;;4.78;1.20;;;21.40;99.90;;;;;;4984180;28;20115;-78
2022/08/29 08:25:27;;;;;;;3.50;1.20;;;21.50;99.90;;;;;;5007000;28;20080;-78
2022/08/29 08:27:53;;;;;;;2.17;1.00;;;21.60;99.90;;;;;;5003073;28;20077;-79
2022/08/29 08:30:19;;;;;;;2.40;1.38;;;21.70;99.90;;;;;;5024732;28;20089;-78
2022/08/29 08:32:45;;;;;;;3.47;1.08;;;21.70;99.90;;;;;;5003671;28;20141;-78
2022/08/29 08:35:11;;;;;;;3.17;1.20;;;21.80;99.90;;;;;;5004405;28;20069;-79
2022/08/29 08:37:38;;;;;;;3.63;1.00;;;21.90;99.90;;;;;;5023957;28;20564;-79
2022/08/29 08:40:06;;;;;;;4.03;1.17;;;21.90;99.90;;;;;;5027814;28;20076;-78
2022/08/29 08:42:44;;;;;;;3.50;1.25;;;21.90;99.90;;;;;;5025383;28;20103;-78
2022/08/29 08:45:15;;;;;;;3.53;0.90;;;21.90;99.90;;;;;;5009086;28;20103;-78
2022/08/29 08:48:01;;;;;;;4.35;1.30;;;21.90;99.90;;;;;;5005657;28;20060;-79
2022/08/29 08:50:36;;;;;;;3.33;1.25;;;21.90;99.90;;;;;;5012187;28;20050;-80
2022/08/29 08:53:25;;;;;;;3.67;1.30;;;21.90;99.90;;;;;;5024677;28;20111;-79
2022/08/29 08:55:54;;;;;;;4.18;1.38;;;22.00;99.90;;;;;;5024537;28;20529;-77
2022/08/29 08:58:31;;;;;;;4.18;1.20;;;22.10;99.90;;;;;;5023126;28;20088;-78
2022/08/29 09:01:13;;;;;;;4.45;1.40;;;22.30;99.90;;;;;;5027774;28;20045;-79
2022/08/29 09:04:03;;;;;;;3.63;1.30;;;22.70;99.90;;;;;;5029827;28;20049;-80
2022/08/29 09:06:45;;;;;;;3.40;1.30;;;22.70;99.90;;;;;;5028261;28;20071;-80
2022/08/29 09:09:29;;;;;;;5.07;1.02;;;22.70;99.90;;;;;;5040215;28;20041;-81
2022/08/29 09:12:05;;;;;;;3.83;1.35;;;22.70;99.90;;;;;;5000241;28;20076;-78
2022/08/29 09:14:59;;;;;;;6.57;1.48;;;22.90;99.90;;;;;;5022841;28;20044;-80
2022/08/29 09:17:35;;;;;;;3.88;1.30;;;23.30;99.90;;;;;;5022647;28;20047;-79
2022/08/29 09:20:07;;;;;;;2.50;1.13;;;23.70;99.90;;;;;;5022560;28;20048;-80
2022/08/29 09:22:34;;;;;;;4.13;1.55;;;24.10;99.90;;;;;;5037606;28;20135;-79
2022/08/29 09:25:04;;;;;;;3.97;1.30;;;24.50;99.90;;;;;;4999576;28;20054;-79
2022/08/29 09:27:33;;;;;;;3.58;1.40;;;24.60;99.90;;;;;;5001581;28;20049;-80
2022/08/29 09:30:06;;;;;;;4.28;1.75;;;24.50;99.90;;;;;;5017986;28;20562;-79
2022/08/29 09:32:33;;;;;;;4.20;1.20;;;24.60;99.90;;;;;;5017742;28;20060;-81
2022/08/29 09:34:59;;;;;;;3.75;1.35;;;24.70;99.90;;;;;;5033119;28;20115;-80
2022/08/29 09:37:31;;;;;;;3.15;1.30;;;24.80;99.90;;;;;;5016076;28;20589;-79
2022/08/29 09:40:12;;;;;;;4.07;1.40;;;24.90;99.90;;;;;;4996541;28;20132;-81
2022/08/29 09:42:45;;;;;;;2.92;1.25;;;25.00;99.90;;;;;;5002886;28;20069;-81
2022/08/29 09:45:22;;;;;;;4.90;1.70;;;25.20;99.90;;;;;;5017672;28;20045;-80
2022/08/29 09:47:48;;;;;;;5.00;1.42;;;25.30;99.90;;;;;;4996347;28;20329;-78
2022/08/29 09:50:24;;;;;;;5.35;1.70;;;25.30;99.90;;;;;;4997757;28;20056;-78
2022/08/29 09:52:56;;;;;;;6.80;1.52;;;25.50;99.90;;;;;;5012576;28;20048;-78
2022/08/29 09:55:51;;;;;;;3.65;1.30;;;25.50;99.90;;;;;;5000052;28;20055;-78
2022/08/29 09:58:20;;;;;;;5.50;1.55;;;25.60;99.70;;;;;;5002413;28;20529;-77
2022/08/29 10:01:10;;;;;;;4.60;1.67;;;25.70;99.90;;;;;;5019547;28;20046;-77
2022/08/29 10:03:40;;;;;;;4.75;1.52;;;25.70;99.40;;;;;;5002664;28;20057;-78
2022/08/29 10:06:21;;;;;;;5.57;1.50;;;25.60;99.70;;;;;;5019714;28;20087;-78
2022/08/29 10:09:23;;;;;;;5.35;1.50;;;25.70;99.30;;;;;;5023740;28;20128;-79
2022/08/29 10:12:02;;;;;;;3.17;1.10;;;25.80;98.50;;;;;;5002111;28;20064;-79
2022/08/29 10:14:34;;;;;;;4.90;1.50;;;25.80;99.00;;;;;;5000480;28;20049;-79
2022/08/29 10:19:52;;;;;;;4.97;1.45;;;26.20;99.10;;;;;;5016670;28;20049;-78
2022/08/29 10:22:47;;;;;;;6.03;1.40;;;26.10;99.20;;;;;;4986806;28;20640;-79
2022/08/29 10:25:35;;;;;;;4.18;1.70;;;26.00;98.70;;;;;;5017592;28;20060;-77
2022/08/29 10:28:41;;;;;;;4.70;1.77;;;25.80;99.30;;;;;;5014357;28;20045;-78
2022/08/29 10:31:34;;;;;;;3.80;1.30;;;25.50;99.20;;;;;;4941220;28;20054;-79
2022/08/29 10:34:31;;;;;;;6.82;1.95;;;25.30;99.40;;;;;;5019015;28;20124;-78
2022/08/29 10:37:21;;;;;;;4.95;1.38;;;24.90;99.90;;;;;;5001253;28;20033;-78
2022/08/29 10:40:14;;;;;;;4.15;1.45;;;24.70;99.90;;;;;;5018783;28;20049;-78
2022/08/29 10:42:43;;;;;;;5.97;1.80;;;24.50;99.90;;;;;;5022720;28;20112;-79
2022/08/29 10:45:53;;;;;;;3.78;1.40;;;24.20;99.90;;;;;;5040285;28;20049;-79
2022/08/29 10:48:28;;;;;;;5.90;1.60;;;24.10;99.90;;;;;;5017666;28;20053;-79
2022/08/29 10:51:07;;;;;;;5.50;1.75;;;23.90;99.90;;;;;;5036879;28;20222;-79
2022/08/29 10:53:38;;;;;;;4.95;1.80;;;23.80;99.90;;;;;;5001455;28;20076;-80
2022/08/29 10:56:16;;;;;;;3.03;1.40;;;23.60;99.90;;;;;;5017575;28;20214;-79
2022/08/29 10:59:17;;;;;;;4.07;1.50;;;23.60;99.90;;;;;;5008851;28;20049;-80
2022/08/29 11:02:04;;;;;;;4.15;1.63;;;23.50;99.90;;;;;;5041794;28;20046;-80
2022/08/29 11:04:44;;;;;;;2.83;1.30;;;23.50;99.90;;;;;;5007710;28;20091;-78
2022/08/29 11:07:18;;;;;;;5.78;2.03;;;23.50;99.90;;;;;;5024031;28;20041;-81
2022/08/29 11:09:47;;;;;;;4.18;1.60;;;23.40;99.90;;;;;;5024061;28;20087;-79
2022/08/29 11:12:44;;;;;;;5.53;1.50;;;23.30;99.90;;;;;;4997650;28;21096;-79
2022/08/29 11:15:26;;;;;;;9.45;2.38;;;23.20;99.90;;;;;;5018249;28;20093;-78
2022/08/29 11:18:04;;;;;;;4.20;1.77;;;23.20;99.90;;;;;;5005557;28;20205;-77
2022/08/29 11:20:37;;;;;;;5.50;1.70;;;23.20;99.90;;;;;;5023758;28;20053;-77
2022/08/29 11:23:25;;;;;;;4.85;1.67;;;23.20;99.90;;;;;;5009431;28;20133;-77
2022/08/29 11:25:51;;;;;;;5.90;1.98;;;23.30;99.90;;;;;;5006032;28;20045;-77
2022/08/29 11:28:32;;;;;;;7.00;2.50;;;23.50;99.90;;;;;;4988695;28;20084;-77
2022/08/29 11:30:58;;;;;;;5.68;1.95;;;23.60;99.90;;;;;;4983890;28;20046;-78
2022/08/29 11:33:38;;;;;;;7.35;1.70;;;23.80;99.90;;;;;;4989593;28;22078;-78
2022/08/29 11:36:26;;;;;;;6.97;2.05;;;23.90;99.90;;;;;;4998502;28;20385;-77
2022/08/29 11:39:38;;;;;;;6.22;2.03;;;23.90;99.90;;;;;;4983044;28;20073;-78
2022/08/29 11:42:08;;;;;;;7.22;1.95;;;24.00;99.90;;;;;;4982872;28;20535;-77
2022/08/29 11:44:41;;;;;;;4.00;1.70;;;24.10;99.90;;;;;;5000115;28;20432;-78
2022/08/29 11:47:34;;;;;;;5.22;1.98;;;24.20;99.90;;;;;;5004392;28;20042;-78
2022/08/29 11:50:34;;;;;;;7.93;2.30;;;24.30;99.90;;;;;;5005583;28;20131;-78
2022/08/29 11:53:06;;;;;;;6.72;2.00;;;24.30;99.90;;;;;;4989769;28;20077;-78
2022/08/29 11:55:40;;;;;;;5.38;1.80;;;24.30;99.90;;;;;;5000600;28;20042;-78
2022/08/29 11:58:12;;;;;;;4.60;1.85;;;24.30;99.90;;;;;;5000168;28;20050;-78
2022/08/29 12:00:43;;;;;;;4.70;1.92;;;24.20;99.90;;;;;;5005219;28;20048;-78
2022/08/29 12:03:33;;;;;;;4.57;1.60;;;24.30;99.90;;;;;;5019082;28;20056;-78
2022/08/29 12:06:11;;;;;;;5.03;1.77;;;24.30;99.90;;;;;;5005718;28;20122;-77
2022/08/29 12:09:00;;;;;;;3.53;1.50;;;24.20;99.90;;;;;;4991641;28;20042;-77
2022/08/29 12:11:57;;;;;;;5.90;1.88;;;24.20;99.90;;;;;;4987563;28;20057;-81
2022/08/29 12:14:37;;;;;;;4.88;1.88;;;23.90;99.90;;;;;;5003210;28;20057;-78
2022/08/29 12:17:07;;;;;;;5.47;2.20;;;23.80;99.90;;;;;;4998919;28;20084;-77
2022/08/29 12:19:56;;;;;;;4.60;1.90;;;23.60;99.90;;;;;;5004003;28;20590;-78
2022/08/29 12:22:50;;;;;;;7.45;2.30;;;23.60;99.90;;;;;;5021602;28;20188;-77
2022/08/29 12:25:46;;;;;;;5.55;1.90;;;23.60;99.90;;;;;;5008089;28;20065;-79
2022/08/29 12:28:20;;;;;;;625.90;65.70;;;23.70;99.90;;;;;;5003089;28;20057;-78
2022/08/29 12:30:48;;;;;;;20.67;3.95;;;23.70;99.90;;;;;;5023120;28;20045;-78
2022/08/29 12:33:35;;;;;;;10.07;2.20;;;23.80;99.90;;;;;;5019692;28;20042;-78
2022/08/29 12:36:24;;;;;;;5.90;1.80;;;23.90;99.90;;;;;;5038737;28;20053;-78
2022/08/29 12:38:55;;;;;;;6.80;1.90;;;24.20;99.90;;;;;;5018403;28;20126;-78
2022/08/29 12:41:47;;;;;;;5.28;2.00;;;24.60;99.90;;;;;;5023837;28;20045;-78
2022/08/29 12:44:15;;;;;;;7.25;2.10;;;24.90;99.90;;;;;;5019287;28;20052;-78
2022/08/29 12:46:50;;;;;;;4.07;2.00;;;25.10;99.90;;;;;;5022577;28;20080;-79
2022/08/29 12:49:24;;;;;;;8.02;2.25;;;25.20;99.90;;;;;;5025167;28;20053;-77
2022/08/29 12:51:59;;;;;;;4.93;1.60;;;25.20;99.90;;;;;;5002386;28;20081;-77
2022/08/29 12:54:35;;;;;;;8.20;1.80;;;25.40;99.90;;;;;;5023814;28;20479;-77
2022/08/29 12:57:04;;;;;;;5.32;1.70;;;25.60;99.90;;;;;;5018248;28;20045;-77
2022/08/29 12:59:30;;;;;;;4.25;1.63;;;25.70;99.90;;;;;;5023375;28;20111;-77
2022/08/29 13:01:57;;;;;;;4.97;1.80;;;25.60;99.90;;;;;;5020053;28;20492;-80
2022/08/29 13:04:26;;;;;;;6.00;1.73;;;25.60;99.90;;;;;;5008026;28;20045;-80
2022/08/29 13:06:59;;;;;;;8.25;2.13;;;25.50;99.90;;;;;;5021451;28;20088;-81
2022/08/29 13:09:28;;;;;;;4.63;1.98;;;25.50;99.90;;;;;;5019430;28;20041;-79